createdAt,value
2019-01-16T05:43:51.353Z,99.90
2019-01-16T05:46:39.652Z,99.90
2019-01-16T05:49:30.927Z,99.90
2019-01-16T05:52:19.832Z,99.90
2019-01-16T05:55:06.870Z,99.90
2019-01-16T05:58:07.387Z,99.90
2019-01-16T06:00:54.608Z,99.90
2019-01-16T06:03:41.548Z,99.90
2019-01-16T06:06:28.598Z,99.90
2019-01-16T06:09:25.656Z,99.90
2019-01-16T06:12:19.877Z,99.90
2019-01-16T06:15:06.887Z,99.90
2019-01-16T06:17:58.174Z,99.90
2019-01-16T06:20:46.376Z,99.90
2019-01-16T06:23:33.260Z,99.90
2019-01-16T06:26:12.184Z,99.90
2019-01-16T06:29:03.252Z,99.90
2019-01-16T06:31:54.699Z,99.90
2019-01-16T06:34:47.183Z,99.90
2019-01-16T06:37:34.118Z,99.90
2019-01-16T06:40:13.313Z,99.90
2019-01-16T06:42:56.819Z,99.90
2019-01-16T06:45:38.598Z,99.90
2019-01-16T06:48:28.460Z,99.90
2019-01-16T06:51:15.606Z,99.90
2019-01-16T06:54:02.726Z,99.90
2019-01-16T06:56:50.965Z,99.90
2019-01-16T06:59:48.131Z,99.90
2019-01-16T07:02:39.329Z,99.90
2019-01-16T07:05:31.168Z,99.90
2019-01-16T07:08:10.316Z,99.90
2019-01-16T07:11:05.110Z,99.90
2019-01-16T07:13:59.497Z,99.90
2019-01-16T07:16:59.747Z,99.90
2019-01-16T07:19:40.071Z,99.90
2019-01-16T07:22:26.869Z,99.90
2019-01-16T07:25:14.049Z,99.90
2019-01-16T07:28:14.368Z,99.90
2019-01-16T07:31:01.396Z,99.90
2019-01-16T07:33:38.945Z,99.90
2019-01-16T07:36:38.148Z,99.90
2019-01-16T07:39:37.075Z,99.90
2019-01-16T07:42:28.225Z,99.90
2019-01-16T07:45:06.446Z,99.90
2019-01-16T07:47:51.638Z,99.90
2019-01-16T07:50:34.043Z,99.90
2019-01-16T07:53:21.268Z,99.90
2019-01-16T07:56:09.488Z,99.90
2019-01-16T07:59:03.536Z,99.90
2019-01-16T08:01:47.305Z,99.90
2019-01-16T08:04:35.543Z,99.90
2019-01-16T08:07:33.183Z,99.90
2019-01-16T08:10:27.224Z,99.90
2019-01-16T08:13:27.397Z,99.90
2019-01-16T08:16:30.783Z,99.90
2019-01-16T08:22:41.344Z,99.90
2019-01-16T08:25:21.058Z,99.90
2019-01-16T08:28:09.416Z,99.90
2019-01-16T08:30:58.002Z,99.90
2019-01-16T08:33:52.147Z,99.90
2019-01-16T08:36:42.829Z,99.90
2019-01-16T08:39:29.609Z,99.90
2019-01-16T08:42:16.828Z,99.90
2019-01-16T08:45:13.001Z,99.90
2019-01-16T08:48:01.239Z,99.90
2019-01-16T08:50:45.442Z,99.90
2019-01-16T08:53:28.840Z,99.90
2019-01-16T08:56:15.688Z,99.90
2019-01-16T08:59:13.006Z,99.90
2019-01-16T09:02:07.053Z,99.90
2019-01-16T09:04:54.094Z,99.10
2019-01-16T09:07:48.149Z,97.90
2019-01-16T09:10:30.598Z,97.80
2019-01-16T09:13:17.756Z,99.90
2019-01-16T09:16:15.487Z,99.90
2019-01-16T09:19:06.613Z,99.90
2019-01-16T09:22:04.063Z,99.90
2019-01-16T09:24:45.832Z,99.90
2019-01-16T09:27:43.351Z,99.90
2019-01-16T09:30:32.287Z,99.90
2019-01-16T09:33:23.771Z,99.90
2019-01-16T09:36:19.412Z,99.90
2019-01-16T09:39:07.707Z,99.90
2019-01-16T09:41:58.876Z,99.90
2019-01-16T09:44:35.917Z,99.90
2019-01-16T09:47:21.370Z,99.90
2019-01-16T09:50:13.769Z,99.90
2019-01-16T09:52:59.446Z,99.90
2019-01-16T09:55:56.471Z,99.90
2019-01-16T09:58:44.741Z,99.90
2019-01-16T10:01:36.129Z,99.90
2019-01-16T10:04:19.811Z,99.90
2019-01-16T10:07:06.902Z,99.90
2019-01-16T10:09:58.227Z,98.20
2019-01-16T10:12:45.040Z,94.60
2019-01-16T10:15:32.965Z,93.00
2019-01-16T10:18:36.540Z,92.10
2019-01-16T10:21:24.720Z,88.80
2019-01-16T10:24:24.939Z,90.00
2019-01-16T10:27:19.622Z,89.20
2019-01-16T10:30:06.800Z,86.20
2019-01-16T10:33:00.010Z,86.30
2019-01-16T10:35:51.358Z,85.10
2019-01-16T10:38:57.715Z,78.70
2019-01-16T10:42:04.098Z,79.40
2019-01-16T10:44:58.146Z,78.90
2019-01-16T10:48:04.463Z,77.90
2019-01-16T10:51:02.954Z,78.50
2019-01-16T10:53:38.768Z,79.10
2019-01-16T10:56:28.103Z,77.40
2019-01-16T10:59:26.615Z,73.80
2019-01-16T11:02:17.672Z,74.20
2019-01-16T11:05:20.897Z,73.50
2019-01-16T11:08:03.605Z,81.20
2019-01-16T11:10:58.954Z,87.30
2019-01-16T11:13:53.326Z,91.30
2019-01-16T11:16:34.538Z,92.10
2019-01-16T11:19:28.892Z,91.70
2019-01-16T11:22:15.840Z,92.70
2019-01-16T11:25:16.402Z,93.90
2019-01-16T11:28:03.193Z,91.90
2019-01-16T11:31:00.993Z,92.80
2019-01-16T11:34:01.575Z,92.20
2019-01-16T11:36:49.843Z,92.60
2019-01-16T11:39:37.314Z,91.70
2019-01-16T11:42:24.376Z,95.70
2019-01-16T11:45:30.684Z,97.70
2019-01-16T11:48:31.006Z,98.40
2019-01-16T11:51:19.247Z,99.90
2019-01-16T11:54:08.990Z,99.90
2019-01-16T11:56:57.282Z,99.90
2019-01-16T11:59:46.976Z,99.90
2019-01-16T12:02:41.370Z,99.90
2019-01-16T12:05:29.537Z,99.90
2019-01-16T12:08:17.743Z,99.90
2019-01-16T12:11:04.971Z,99.90
2019-01-16T12:13:53.215Z,99.90
2019-01-16T12:16:47.247Z,99.90
2019-01-16T12:19:37.991Z,99.90
2019-01-16T12:22:24.958Z,99.90
2019-01-16T12:25:19.407Z,99.90
2019-01-16T12:28:05.795Z,99.90
2019-01-16T12:30:52.652Z,99.90
2019-01-16T12:33:56.276Z,99.90
2019-01-16T12:36:53.566Z,99.90
2019-01-16T12:39:40.453Z,99.90
2019-01-16T12:42:40.678Z,99.90
2019-01-16T12:45:27.909Z,99.90
2019-01-16T12:48:05.625Z,99.90
2019-01-16T12:51:07.700Z,99.90
2019-01-16T12:53:58.615Z,99.90
2019-01-16T12:56:58.711Z,99.90
2019-01-16T12:59:37.505Z,99.90
2019-01-16T13:02:17.527Z,99.90
2019-01-16T13:05:00.929Z,99.90
2019-01-16T13:07:51.923Z,99.90
2019-01-16T13:10:55.190Z,99.90
2019-01-16T13:13:41.499Z,99.90
2019-01-16T13:16:29.746Z,99.90
2019-01-16T13:19:20.762Z,99.90
2019-01-16T13:22:09.330Z,99.90
2019-01-16T13:25:06.375Z,99.90
2019-01-16T13:27:50.352Z,99.90
2019-01-16T13:30:42.688Z,99.90
2019-01-16T13:33:48.064Z,99.90
2019-01-16T13:36:31.271Z,99.90
2019-01-16T13:39:22.487Z,99.90
2019-01-16T13:42:10.713Z,99.90
2019-01-16T13:45:04.967Z,99.90
2019-01-16T13:47:56.250Z,99.90
2019-01-16T13:50:37.799Z,99.90
2019-01-16T13:53:24.590Z,99.90
2019-01-16T13:56:20.441Z,99.90
2019-01-16T13:59:07.396Z,99.90
2019-01-16T14:01:46.451Z,99.90
2019-01-16T14:04:37.164Z,99.90
2019-01-16T14:07:24.643Z,99.90
2019-01-16T14:10:22.086Z,99.90
2019-01-16T14:13:13.360Z,99.90
2019-01-16T14:16:01.587Z,99.90
2019-01-16T14:18:58.667Z,99.90
2019-01-16T14:21:40.235Z,99.90
2019-01-16T14:24:37.708Z,99.90
2019-01-16T14:27:32.642Z,99.90
2019-01-16T14:30:21.158Z,99.90
2019-01-16T14:33:18.819Z,99.90
2019-01-16T14:36:10.220Z,99.90
2019-01-16T14:39:07.603Z,99.90
2019-01-16T14:41:56.282Z,99.90
2019-01-16T14:44:36.290Z,99.90
2019-01-16T14:47:16.542Z,99.90
2019-01-16T14:50:02.568Z,99.90
2019-01-16T14:52:43.628Z,99.90
2019-01-16T14:55:48.550Z,99.90
2019-01-16T14:58:34.162Z,99.90
2019-01-16T15:01:20.015Z,99.90
2019-01-16T15:04:11.053Z,99.90
2019-01-16T15:07:05.466Z,99.90
2019-01-16T15:10:02.758Z,99.90
2019-01-16T15:13:06.114Z,99.90
2019-01-16T15:15:53.242Z,99.90
2019-01-16T15:18:35.292Z,99.90
2019-01-16T15:21:24.047Z,99.90
2019-01-16T15:24:15.043Z,99.90
2019-01-16T15:27:05.274Z,99.90
2019-01-16T15:29:52.315Z,99.90
2019-01-16T15:32:38.551Z,99.90
2019-01-16T15:35:36.642Z,99.90
2019-01-16T15:38:24.202Z,99.90
2019-01-16T15:41:15.188Z,99.90
2019-01-16T15:44:12.442Z,99.90
2019-01-16T15:47:00.688Z,99.90
2019-01-16T15:50:06.990Z,99.90
2019-01-16T15:52:54.935Z,99.90
2019-01-16T15:55:52.000Z,99.90
2019-01-16T15:58:39.139Z,99.90
2019-01-16T16:01:26.365Z,99.90
2019-01-16T16:04:20.885Z,99.90
2019-01-16T16:07:08.211Z,99.90
2019-01-16T16:10:02.387Z,99.90
2019-01-16T16:12:49.455Z,99.90
2019-01-16T16:15:37.232Z,99.90
2019-01-16T16:18:23.391Z,99.90
2019-01-16T16:21:14.687Z,99.90
2019-01-16T16:24:09.315Z,99.90
2019-01-16T16:26:57.559Z,99.90
2019-01-16T16:29:46.117Z,99.90
2019-01-16T16:32:33.061Z,99.90
2019-01-16T16:35:20.073Z,99.90
2019-01-16T16:38:23.749Z,99.90
2019-01-16T16:41:12.060Z,99.90
2019-01-16T16:44:09.851Z,99.90
2019-01-16T16:46:55.862Z,99.90
2019-01-16T16:49:32.123Z,99.90
2019-01-16T16:52:19.309Z,99.90
2019-01-16T16:55:13.579Z,99.90
2019-01-16T16:58:04.610Z,99.90
2019-01-16T17:00:55.035Z,99.90
2019-01-16T17:03:46.034Z,99.90
2019-01-16T17:06:47.158Z,99.90
2019-01-16T17:09:36.608Z,99.90
2019-01-16T17:12:25.055Z,99.90
2019-01-16T17:15:12.368Z,99.90
2019-01-16T17:18:09.890Z,99.90
2019-01-16T17:21:00.500Z,99.90
2019-01-16T17:23:47.583Z,99.90
2019-01-16T17:26:44.628Z,99.90
2019-01-16T17:29:51.199Z,99.90
2019-01-16T17:32:42.440Z,99.90
2019-01-16T17:35:35.116Z,99.90
2019-01-16T17:38:13.894Z,99.90
2019-01-16T17:41:01.283Z,99.90
2019-01-16T17:43:52.512Z,99.90
2019-01-16T17:46:46.566Z,99.90
2019-01-16T17:49:55.191Z,99.90
2019-01-16T17:52:45.271Z,99.90
2019-01-16T17:55:28.294Z,99.90
2019-01-16T17:58:15.142Z,99.90
2019-01-16T18:01:06.406Z,99.90
2019-01-16T18:03:57.401Z,99.90
2019-01-16T18:06:54.896Z,99.90
2019-01-16T18:09:43.156Z,99.90
2019-01-16T18:12:30.142Z,99.90
2019-01-16T18:15:29.523Z,99.90
2019-01-16T18:18:08.900Z,99.90
2019-01-16T18:20:55.685Z,99.90
2019-01-16T18:23:58.980Z,99.90
2019-01-16T18:26:49.113Z,99.90
2019-01-16T18:29:27.063Z,99.90
2019-01-16T18:32:15.290Z,99.90
2019-01-16T18:34:57.419Z,99.90
2019-01-16T18:37:44.181Z,99.90
2019-01-16T18:40:32.137Z,99.90
2019-01-16T18:43:19.142Z,99.90
2019-01-16T18:46:13.743Z,99.90
2019-01-16T18:49:02.391Z,99.90
2019-01-16T18:52:05.706Z,99.90
2019-01-16T18:54:52.881Z,99.90
2019-01-16T18:57:50.185Z,99.90
2019-01-16T19:00:38.789Z,99.90
2019-01-16T19:03:42.386Z,99.90
2019-01-16T19:06:45.591Z,99.90
2019-01-16T19:09:32.620Z,99.90
2019-01-16T19:12:20.655Z,99.90
2019-01-16T19:15:07.562Z,99.90
2019-01-16T19:18:02.216Z,99.90
2019-01-16T19:20:59.971Z,99.90
2019-01-16T19:23:39.738Z,99.90
2019-01-16T19:26:31.085Z,99.90
2019-01-16T19:29:28.294Z,99.90
2019-01-16T19:32:15.506Z,99.90
2019-01-16T19:35:02.724Z,99.90
2019-01-16T19:37:58.173Z,99.90
2019-01-16T19:40:44.984Z,99.90
2019-01-16T19:43:45.243Z,99.90
2019-01-16T19:46:32.070Z,99.90
2019-01-16T19:49:19.122Z,99.90
2019-01-16T19:52:10.326Z,99.90
2019-01-16T19:54:58.219Z,99.90
2019-01-16T19:57:49.659Z,99.90
2019-01-16T20:00:39.536Z,99.90
2019-01-16T20:03:30.633Z,99.90
2019-01-16T20:06:22.763Z,99.90
2019-01-16T20:09:09.827Z,99.90
2019-01-16T20:12:13.403Z,99.90
2019-01-16T20:15:01.095Z,99.90
2019-01-16T20:18:04.628Z,99.90
2019-01-16T20:20:51.566Z,99.90
2019-01-16T20:23:52.087Z,99.90
2019-01-16T20:26:49.594Z,99.90
2019-01-16T20:29:36.440Z,99.90
2019-01-16T20:32:17.873Z,99.90
2019-01-16T20:34:58.834Z,99.90
2019-01-16T20:37:47.077Z,99.90
2019-01-16T20:40:47.342Z,99.90
2019-01-16T20:43:30.589Z,99.90
2019-01-16T20:46:17.405Z,99.90
2019-01-16T20:49:06.715Z,99.90
2019-01-16T20:51:55.000Z,99.90
2019-01-16T20:54:43.205Z,99.90
2019-01-16T20:57:28.646Z,99.90
2019-01-16T21:00:14.524Z,99.90
2019-01-16T21:03:11.788Z,99.90
2019-01-16T21:06:01.240Z,99.90
2019-01-16T21:08:52.517Z,99.90
2019-01-16T21:11:40.844Z,99.90
2019-01-16T21:14:28.367Z,99.90
2019-01-16T21:17:22.372Z,99.90
2019-01-16T21:20:00.342Z,99.90
2019-01-16T21:22:48.585Z,99.90
2019-01-16T21:25:35.662Z,99.90
2019-01-16T21:28:27.239Z,99.90
2019-01-16T21:31:10.684Z,99.90
2019-01-16T21:34:02.124Z,99.90
2019-01-16T21:36:49.214Z,99.90
2019-01-16T21:39:46.324Z,99.90
2019-01-16T21:42:46.650Z,99.90
2019-01-16T21:45:33.734Z,99.90
2019-01-16T21:48:24.962Z,99.90
2019-01-16T21:51:14.930Z,99.90
2019-01-16T21:54:01.079Z,99.90
2019-01-16T21:56:48.029Z,99.90
2019-01-16T21:59:42.541Z,99.90
2019-01-16T22:02:29.868Z,99.90
2019-01-16T22:05:27.328Z,99.90
2019-01-16T22:08:18.717Z,99.90
2019-01-16T22:11:05.721Z,99.90
2019-01-16T22:13:44.603Z,99.90
2019-01-16T22:16:31.598Z,99.90
2019-01-16T22:19:12.518Z,99.90
2019-01-16T22:21:59.783Z,99.90
2019-01-16T22:24:48.106Z,99.90
2019-01-16T22:27:48.275Z,99.90
